Time;durP1;ratioP1;P1;durP2;ratioP2;P2;SDS_P1;SDS_P2;PMS_P1;PMS_P2;Temp;Humidity;BMP_temperature;BMP_pressure;BME280_temperature;BME280_humidity;BME280_pressure;Samples;Min_cycle;Max_cycle;Signal;HPM_P1;HPM_P2
2024/01/11 00:00:43;;;;;;;29.80;13.43;;;;;;;;;;5028399;28;20259;-77
2024/01/11 00:03:09;;;;;;;35.42;14.88;;;;;;;;;;5028339;28;20033;-77
2024/01/11 00:05:36;;;;;;;32.13;14.00;;;;;;;;;;5028748;28;20336;-77
2024/01/11 00:08:02;;;;;;;31.20;14.25;;;;;;;;;;5031084;28;20053;-77
2024/01/11 00:10:28;;;;;;;30.83;14.27;;;;;;;;;;5031920;28;20040;-77
2024/01/11 00:12:54;;;;;;;31.65;13.88;;;;;;;;;;5030517;28;20498;-77
2024/01/11 00:15:20;;;;;;;32.20;14.50;;;;;;;;;;5032366;28;20049;-77
2024/01/11 00:17:47;;;;;;;32.35;14.77;;;;;;;;;;5031980;28;20510;-77
2024/01/11 00:20:13;;;;;;;32.00;14.95;;;;;;;;;;5034382;28;20251;-77
2024/01/11 00:22:39;;;;;;;31.13;14.88;;;;;;;;;;5033428;28;20151;-78
2024/01/11 00:25:05;;;;;;;34.58;14.57;;;;;;;;;;5032358;28;20022;-77
2024/01/11 00:27:31;;;;;;;30.35;13.88;;;;;;;;;;5031862;28;20452;-77
2024/01/11 00:29:57;;;;;;;38.72;15.57;;;;;;;;;;5032021;28;20029;-78
2024/01/11 00:32:23;;;;;;;36.00;14.82;;;;;;;;;;5014370;28;20088;-77
2024/01/11 00:34:50;;;;;;;32.75;15.20;;;;;;;;;;5031009;28;20044;-79
2024/01/11 00:37:17;;;;;;;31.27;15.02;;;;;;;;;;5030309;28;20475;-79
2024/01/11 00:39:43;;;;;;;33.95;15.43;;;;;;;;;;5031160;28;20125;-78
2024/01/11 00:42:09;;;;;;;35.88;15.82;;;;;;;;;;5031968;28;20033;-76
2024/01/11 00:44:36;;;;;;;32.53;14.13;;;;;;;;;;5013590;28;20057;-77
2024/01/11 00:47:02;;;;;;;33.70;16.25;;;;;;;;;;5030578;28;20034;-77
2024/01/11 00:49:28;;;;;;;37.70;16.55;;;;;;;;;;5032526;28;20041;-79
2024/01/11 00:51:54;;;;;;;37.05;16.20;;;;;;;;;;5031283;28;20076;-79
2024/01/11 00:54:20;;;;;;;35.00;16.02;;;;;;;;;;5031327;28;20049;-77
2024/01/11 00:56:46;;;;;;;36.10;15.65;;;;;;;;;;5030723;28;20142;-77
2024/01/11 00:59:12;;;;;;;37.92;16.48;;;;;;;;;;5031269;28;20197;-79
2024/01/11 01:01:39;;;;;;;43.38;16.90;;;;;;;;;;5031718;28;20033;-78
2024/01/11 01:04:05;;;;;;;38.30;17.77;;;;;;;;;;5030693;28;20026;-78
2024/01/11 01:06:31;;;;;;;42.30;17.13;;;;;;;;;;5032848;28;20025;-78
2024/01/11 01:08:57;;;;;;;37.13;17.27;;;;;;;;;;5031783;28;20109;-77
2024/01/11 01:11:23;;;;;;;41.33;17.25;;;;;;;;;;5030868;28;20396;-79
2024/01/11 01:13:49;;;;;;;38.75;16.60;;;;;;;;;;5032408;28;20072;-79
2024/01/11 01:16:17;;;;;;;39.47;17.40;;;;;;;;;;5032903;28;20463;-78
2024/01/11 01:18:44;;;;;;;41.63;17.60;;;;;;;;;;5038252;28;20361;-80
2024/01/11 01:21:10;;;;;;;43.38;19.13;;;;;;;;;;5038332;28;20070;-78
2024/01/11 01:23:36;;;;;;;55.33;19.20;;;;;;;;;;5035752;28;20060;-77
2024/01/11 01:26:02;;;;;;;49.13;18.55;;;;;;;;;;5037324;28;20166;-79
2024/01/11 01:28:28;;;;;;;45.95;18.38;;;;;;;;;;5042504;28;20041;-78
2024/01/11 01:30:54;;;;;;;44.50;18.00;;;;;;;;;;5042077;28;20055;-78
2024/01/11 01:33:20;;;;;;;49.85;20.20;;;;;;;;;;5040953;28;20757;-78
2024/01/11 01:35:46;;;;;;;45.30;18.85;;;;;;;;;;5041836;28;20034;-78
2024/01/11 01:38:13;;;;;;;50.75;21.20;;;;;;;;;;5036257;28;20470;-79
2024/01/11 01:40:39;;;;;;;50.45;21.42;;;;;;;;;;5034125;28;20313;-79
2024/01/11 01:43:10;;;;;;;45.38;20.60;;;;;;;;;;5033058;28;20060;-79
2024/01/11 01:45:36;;;;;;;44.45;20.38;;;;;;;;;;5030590;28;20040;-78
2024/01/11 01:48:04;;;;;;;45.83;20.40;;;;;;;;;;5036012;28;20551;-78
2024/01/11 01:50:30;;;;;;;53.85;21.67;;;;;;;;;;5031781;28;20071;-78
2024/01/11 01:52:56;;;;;;;58.92;21.73;;;;;;;;;;5032549;28;20044;-79
2024/01/11 01:55:23;;;;;;;49.63;21.50;;;;;;;;;;5032650;28;20048;-78
2024/01/11 01:57:50;;;;;;;48.45;21.10;;;;;;;;;;5032731;28;20041;-78
2024/01/11 02:00:16;;;;;;;56.28;22.10;;;;;;;;;;5033110;28;20124;-77
2024/01/11 02:02:47;;;;;;;48.70;21.42;;;;;;;;;;5032992;28;20270;-77
2024/01/11 02:05:13;;;;;;;52.10;21.25;;;;;;;;;;5032195;28;20033;-77
2024/01/11 02:07:40;;;;;;;52.33;21.90;;;;;;;;;;5031752;28;20029;-77
2024/01/11 02:10:07;;;;;;;55.10;23.30;;;;;;;;;;5031006;28;20041;-77
2024/01/11 02:12:35;;;;;;;61.10;23.98;;;;;;;;;;5030692;28;20047;-77
2024/01/11 02:15:03;;;;;;;60.08;24.55;;;;;;;;;;5029656;28;20025;-77
2024/01/11 02:17:29;;;;;;;63.10;25.52;;;;;;;;;;5026939;28;20057;-76
2024/01/11 02:19:56;;;;;;;54.83;23.45;;;;;;;;;;5029829;28;20048;-78
2024/01/11 02:22:29;;;;;;;56.50;24.98;;;;;;;;;;5030097;28;20084;-76
2024/01/11 02:24:57;;;;;;;62.50;23.15;;;;;;;;;;5027204;28;20041;-77
2024/01/11 02:27:23;;;;;;;63.28;25.35;;;;;;;;;;5028939;28;20154;-77
2024/01/11 02:29:49;;;;;;;58.55;25.30;;;;;;;;;;5029758;28;20029;-76
2024/01/11 02:32:16;;;;;;;56.20;24.60;;;;;;;;;;5029172;28;20037;-77
2024/01/11 02:34:42;;;;;;;68.68;25.67;;;;;;;;;;5029041;28;20465;-79
2024/01/11 02:37:08;;;;;;;72.80;26.20;;;;;;;;;;5030266;28;20359;-78
2024/01/11 02:39:34;;;;;;;60.22;25.85;;;;;;;;;;5030705;28;20041;-78
2024/01/11 02:42:00;;;;;;;60.40;25.30;;;;;;;;;;5029909;28;20406;-79
2024/01/11 02:44:26;;;;;;;64.18;26.42;;;;;;;;;;5026906;28;20116;-78
2024/01/11 02:46:56;;;;;;;61.35;25.48;;;;;;;;;;5028714;28;20151;-77
2024/01/11 02:49:24;;;;;;;58.80;26.90;;;;;;;;;;5029457;28;20034;-77
2024/01/11 02:51:50;;;;;;;60.70;26.52;;;;;;;;;;5027915;28;20430;-77
2024/01/11 02:54:17;;;;;;;61.63;26.05;;;;;;;;;;5029727;28;20038;-77
2024/01/11 02:56:43;;;;;;;65.63;26.45;;;;;;;;;;5029404;28;20483;-77
2024/01/11 02:59:09;;;;;;;67.63;28.52;;;;;;;;;;5031151;28;20033;-78
2024/01/11 03:01:36;;;;;;;72.78;28.55;;;;;;;;;;5026408;28;20052;-78
2024/01/11 03:04:02;;;;;;;73.88;28.05;;;;;;;;;;5029343;28;20018;-77
2024/01/11 03:06:28;;;;;;;73.40;28.98;;;;;;;;;;5028222;28;20515;-79
2024/01/11 03:08:54;;;;;;;80.82;30.08;;;;;;;;;;5028749;28;20029;-77
2024/01/11 03:11:20;;;;;;;70.78;28.50;;;;;;;;;;5028279;28;20030;-78
2024/01/11 03:13:46;;;;;;;66.07;27.98;;;;;;;;;;5026837;28;20040;-78
2024/01/11 03:16:13;;;;;;;79.82;29.98;;;;;;;;;;5028118;28;20101;-77
2024/01/11 03:18:39;;;;;;;75.15;30.38;;;;;;;;;;5030037;28;20506;-77
2024/01/11 03:21:05;;;;;;;79.10;29.35;;;;;;;;;;5028468;28;20592;-78
2024/01/11 03:23:31;;;;;;;78.15;30.85;;;;;;;;;;5027156;28;20030;-78
2024/01/11 03:25:58;;;;;;;79.28;30.95;;;;;;;;;;5030395;28;20124;-78
2024/01/11 03:28:24;;;;;;;81.22;31.80;;;;;;;;;;5028609;28;20056;-77
2024/01/11 03:30:50;;;;;;;80.32;32.78;;;;;;;;;;5028994;28;20041;-79
2024/01/11 03:33:16;;;;;;;81.45;32.33;;;;;;;;;;5028698;28;20079;-77
2024/01/11 03:35:43;;;;;;;78.88;32.17;;;;;;;;;;5028457;28;20037;-78
2024/01/11 03:38:10;;;;;;;82.35;31.67;;;;;;;;;;5034889;28;20108;-77
2024/01/11 03:40:36;;;;;;;80.25;32.25;;;;;;;;;;5027889;28;20029;-79
2024/01/11 03:43:02;;;;;;;80.70;32.25;;;;;;;;;;5031362;28;20047;-76
2024/01/11 03:45:30;;;;;;;87.88;34.17;;;;;;;;;;5030723;28;20053;-77
2024/01/11 03:47:56;;;;;;;81.95;32.97;;;;;;;;;;5032092;28;20033;-77
2024/01/11 03:50:22;;;;;;;84.78;35.05;;;;;;;;;;5033526;28;20022;-77
2024/01/11 03:52:48;;;;;;;88.25;33.75;;;;;;;;;;5032591;28;20040;-78
2024/01/11 03:55:15;;;;;;;68.90;30.40;;;;;;;;;;5032370;28;20038;-78
2024/01/11 03:57:42;;;;;;;83.47;33.38;;;;;;;;;;5032288;28;20473;-78
2024/01/11 04:00:09;;;;;;;76.18;31.23;;;;;;;;;;5032241;28;20037;-77
2024/01/11 04:02:35;;;;;;;89.40;33.08;;;;;;;;;;5034247;28;20055;-78
2024/01/11 04:05:01;;;;;;;81.10;31.33;;;;;;;;;;5033578;28;20041;-77
2024/01/11 04:07:27;;;;;;;78.55;31.17;;;;;;;;;;5048581;28;20076;-77
2024/01/11 04:09:53;;;;;;;83.20;33.50;;;;;;;;;;5035977;28;20045;-79
2024/01/11 04:12:20;;;;;;;82.53;33.50;;;;;;;;;;5031576;28;20478;-79
2024/01/11 04:14:46;;;;;;;84.38;32.97;;;;;;;;;;5033103;28;20041;-78
2024/01/11 04:17:12;;;;;;;82.68;32.95;;;;;;;;;;5034827;28;20063;-78
2024/01/11 04:19:38;;;;;;;90.38;34.65;;;;;;;;;;5031525;28;20029;-78
2024/01/11 04:22:04;;;;;;;96.75;36.35;;;;;;;;;;5032001;28;20033;-79
2024/01/11 04:24:30;;;;;;;105.35;37.03;;;;;;;;;;5032605;28;20049;-78
2024/01/11 04:26:57;;;;;;;112.88;38.40;;;;;;;;;;5031258;28;20048;-77
2024/01/11 04:29:23;;;;;;;95.50;37.17;;;;;;;;;;5031811;28;20026;-77
2024/01/11 04:31:49;;;;;;;106.55;39.90;;;;;;;;;;5034568;28;20107;-79
2024/01/11 04:34:15;;;;;;;110.03;39.72;;;;;;;;;;5031715;28;20566;-77
2024/01/11 04:36:41;;;;;;;101.55;38.33;;;;;;;;;;5036164;28;20032;-78
2024/01/11 04:39:08;;;;;;;110.95;40.78;;;;;;;;;;5031565;28;20037;-78
2024/01/11 04:41:38;;;;;;;107.13;40.17;;;;;;;;;;5029554;28;20034;-77
2024/01/11 04:44:05;;;;;;;108.72;42.40;;;;;;;;;;5031322;28;20044;-78
2024/01/11 04:46:31;;;;;;;104.30;39.92;;;;;;;;;;5043159;28;20041;-77
2024/01/11 04:48:57;;;;;;;101.95;39.83;;;;;;;;;;5052063;28;20072;-78
2024/01/11 04:51:23;;;;;;;117.45;40.65;;;;;;;;;;5035470;28;20053;-79
2024/01/11 04:53:50;;;;;;;127.97;42.55;;;;;;;;;;5030345;28;20063;-79
2024/01/11 04:56:16;;;;;;;115.10;43.20;;;;;;;;;;5026366;28;20049;-78
2024/01/11 04:58:43;;;;;;;111.93;41.40;;;;;;;;;;5028770;28;20373;-78
2024/01/11 05:01:13;;;;;;;119.28;40.83;;;;;;;;;;5037022;28;20024;-78
2024/01/11 05:03:39;;;;;;;119.17;41.27;;;;;;;;;;5033511;28;20060;-78
2024/01/11 05:06:06;;;;;;;114.50;40.35;;;;;;;;;;5025747;28;20311;-78
2024/01/11 05:08:32;;;;;;;122.40;44.50;;;;;;;;;;5030865;28;20076;-78
2024/01/11 05:10:58;;;;;;;117.00;43.20;;;;;;;;;;5031953;28;20081;-79
2024/01/11 05:13:24;;;;;;;122.03;43.22;;;;;;;;;;5034522;28;20041;-79
2024/01/11 05:15:50;;;;;;;117.20;43.47;;;;;;;;;;5041181;28;20028;-78
2024/01/11 05:18:16;;;;;;;131.98;46.13;;;;;;;;;;5032254;28;20037;-79
2024/01/11 05:20:42;;;;;;;131.40;46.78;;;;;;;;;;5030570;28;20338;-77
2024/01/11 05:23:09;;;;;;;135.10;47.70;;;;;;;;;;5032607;28;20078;-78
2024/01/11 05:25:35;;;;;;;134.57;46.63;;;;;;;;;;5041613;28;20049;-78
2024/01/11 05:28:01;;;;;;;131.50;46.35;;;;;;;;;;5040250;28;20097;-79
2024/01/11 05:30:28;;;;;;;129.80;47.20;;;;;;;;;;5035819;28;20114;-78
2024/01/11 05:32:54;;;;;;;139.48;48.63;;;;;;;;;;5030981;28;20046;-77
2024/01/11 05:35:20;;;;;;;136.63;47.00;;;;;;;;;;5029637;28;20410;-78
2024/01/11 05:37:47;;;;;;;118.93;44.78;;;;;;;;;;5031936;28;20094;-82
2024/01/11 05:40:13;;;;;;;133.60;45.75;;;;;;;;;;5029956;28;20185;-78
2024/01/11 05:42:40;;;;;;;121.90;45.10;;;;;;;;;;5031527;28;20018;-77
2024/01/11 05:45:06;;;;;;;115.95;43.72;;;;;;;;;;5035057;28;20326;-78
2024/01/11 05:47:32;;;;;;;118.72;44.83;;;;;;;;;;5041186;28;20144;-78
2024/01/11 05:49:58;;;;;;;135.15;47.20;;;;;;;;;;5033455;28;20383;-78
2024/01/11 05:52:24;;;;;;;133.10;47.72;;;;;;;;;;5032164;28;20095;-78
2024/01/11 05:54:51;;;;;;;127.97;46.38;;;;;;;;;;5030608;28;20033;-78
2024/01/11 05:57:17;;;;;;;126.63;45.33;;;;;;;;;;5029937;28;20120;-78
2024/01/11 05:59:46;;;;;;;122.43;46.65;;;;;;;;;;5030148;28;20045;-78
2024/01/11 06:02:13;;;;;;;128.57;46.33;;;;;;;;;;5030583;28;20053;-78
2024/01/11 06:04:39;;;;;;;130.50;46.03;;;;;;;;;;5029868;28;20061;-77
2024/01/11 06:07:06;;;;;;;123.10;44.67;;;;;;;;;;5029770;28;20095;-79
2024/01/11 06:09:32;;;;;;;134.70;45.92;;;;;;;;;;5029781;28;20045;-78
2024/01/11 06:11:59;;;;;;;121.20;45.25;;;;;;;;;;5025482;28;20072;-78
2024/01/11 06:14:25;;;;;;;123.65;46.10;;;;;;;;;;5029975;28;20095;-78
2024/01/11 06:16:51;;;;;;;120.20;45.75;;;;;;;;;;5030508;28;20131;-78
2024/01/11 06:19:17;;;;;;;123.88;46.85;;;;;;;;;;5031958;28;20137;-78
2024/01/11 06:21:44;;;;;;;127.72;45.97;;;;;;;;;;5035982;28;20033;-77
2024/01/11 06:24:10;;;;;;;131.75;48.20;;;;;;;;;;5033943;28;20032;-77
2024/01/11 06:26:36;;;;;;;149.13;48.65;;;;;;;;;;5031255;28;20026;-76
2024/01/11 06:29:02;;;;;;;135.55;48.55;;;;;;;;;;5043628;28;20034;-78
2024/01/11 06:31:29;;;;;;;160.32;52.42;;;;;;;;;;5032497;28;20132;-77
2024/01/11 06:33:55;;;;;;;149.88;49.92;;;;;;;;;;5032055;28;20045;-76
2024/01/11 06:36:22;;;;;;;166.90;54.13;;;;;;;;;;5029982;28;20405;-76
2024/01/11 06:38:48;;;;;;;146.02;51.65;;;;;;;;;;5042866;28;20063;-76
2024/01/11 06:41:14;;;;;;;151.07;52.88;;;;;;;;;;5047824;28;20037;-77
2024/01/11 06:43:40;;;;;;;137.95;49.67;;;;;;;;;;5043078;28;20452;-78
2024/01/11 06:46:09;;;;;;;151.85;53.67;;;;;;;;;;5024349;28;20032;-80
2024/01/11 06:48:35;;;;;;;153.48;51.08;;;;;;;;;;5049756;28;20088;-80
2024/01/11 06:51:01;;;;;;;150.60;52.67;;;;;;;;;;5050500;28;20044;-79
2024/01/11 06:53:27;;;;;;;152.70;51.97;;;;;;;;;;5032740;28;20052;-80
2024/01/11 06:55:53;;;;;;;159.98;53.47;;;;;;;;;;5030015;28;20572;-82
2024/01/11 06:58:22;;;;;;;148.63;51.50;;;;;;;;;;5030047;28;20472;-81
2024/01/11 07:00:49;;;;;;;150.90;51.80;;;;;;;;;;5030568;28;20034;-82
2024/01/11 07:03:15;;;;;;;166.85;52.20;;;;;;;;;;5029765;28;20436;-80
2024/01/11 07:05:42;;;;;;;141.15;52.50;;;;;;;;;;5033711;28;20052;-81
2024/01/11 07:08:08;;;;;;;153.70;51.35;;;;;;;;;;5054691;28;20029;-79
2024/01/11 07:10:34;;;;;;;144.38;51.88;;;;;;;;;;5048762;28;20037;-79
2024/01/11 07:13:00;;;;;;;142.98;48.15;;;;;;;;;;5037965;28;20029;-78
2024/01/11 07:15:26;;;;;;;145.30;48.88;;;;;;;;;;5050018;28;20393;-79
2024/01/11 07:17:53;;;;;;;140.82;50.50;;;;;;;;;;5039936;28;20037;-78
2024/01/11 07:20:19;;;;;;;139.73;49.30;;;;;;;;;;5029029;28;20098;-80
2024/01/11 07:22:45;;;;;;;134.52;48.20;;;;;;;;;;5049674;28;20029;-79
2024/01/11 07:25:11;;;;;;;135.30;47.60;;;;;;;;;;5032669;28;20037;-80
2024/01/11 07:27:37;;;;;;;140.35;47.63;;;;;;;;;;5046948;28;20040;-80
2024/01/11 07:30:06;;;;;;;128.63;47.63;;;;;;;;;;5028658;28;20038;-80
2024/01/11 07:32:32;;;;;;;129.80;48.25;;;;;;;;;;5029719;28;20053;-80
2024/01/11 07:34:58;;;;;;;129.75;46.47;;;;;;;;;;5030370;28;20043;-80
2024/01/11 07:37:26;;;;;;;136.23;46.95;;;;;;;;;;5062864;28;20466;-79
2024/01/11 07:39:52;;;;;;;120.72;46.97;;;;;;;;;;5030224;28;20387;-79
2024/01/11 07:42:19;;;;;;;128.30;48.20;;;;;;;;;;5029679;28;20030;-80
2024/01/11 07:44:45;;;;;;;127.78;48.35;;;;;;;;;;5030622;28;20095;-81
2024/01/11 07:47:11;;;;;;;136.55;48.78;;;;;;;;;;5030775;28;20298;-81
2024/01/11 07:49:38;;;;;;;150.85;52.50;;;;;;;;;;5033823;28;20367;-80
2024/01/11 07:52:04;;;;;;;153.38;50.85;;;;;;;;;;5032072;28;20128;-79
2024/01/11 07:54:31;;;;;;;146.95;51.80;;;;;;;;;;5032186;28;20069;-80
2024/01/11 07:56:58;;;;;;;144.88;50.65;;;;;;;;;;5030814;28;20045;-77
2024/01/11 07:59:24;;;;;;;145.30;52.13;;;;;;;;;;5027400;28;20537;-80
2024/01/11 08:01:52;;;;;;;139.98;51.67;;;;;;;;;;5027255;28;20045;-80
2024/01/11 08:04:18;;;;;;;134.30;50.80;;;;;;;;;;5028031;28;20056;-80
2024/01/11 08:06:44;;;;;;;153.57;55.58;;;;;;;;;;5028340;28;20398;-81
2024/01/11 08:09:11;;;;;;;151.68;53.97;;;;;;;;;;5029151;28;20036;-81
2024/01/11 08:11:37;;;;;;;146.18;53.15;;;;;;;;;;5028732;28;20030;-81
2024/01/11 08:14:05;;;;;;;145.90;53.28;;;;;;;;;;5030651;28;20029;-80
2024/01/11 08:16:31;;;;;;;150.38;53.20;;;;;;;;;;5035364;28;20407;-81
2024/01/11 08:18:57;;;;;;;149.35;53.92;;;;;;;;;;5028521;28;20407;-80
2024/01/11 08:21:24;;;;;;;148.35;53.67;;;;;;;;;;5028082;28;20106;-80
2024/01/11 08:23:50;;;;;;;140.65;52.95;;;;;;;;;;5028203;28;20034;-79
2024/01/11 08:26:19;;;;;;;140.45;51.78;;;;;;;;;;5028081;28;20053;-81
2024/01/11 08:28:46;;;;;;;140.35;51.55;;;;;;;;;;5030603;28;20037;-79
2024/01/11 08:31:12;;;;;;;137.05;49.55;;;;;;;;;;5031203;28;20056;-80
2024/01/11 08:33:38;;;;;;;146.18;51.88;;;;;;;;;;5029424;28;20406;-80
2024/01/11 08:36:05;;;;;;;148.95;55.00;;;;;;;;;;5036663;28;20099;-79
2024/01/11 08:38:31;;;;;;;150.63;54.28;;;;;;;;;;5033070;28;20426;-81
2024/01/11 08:40:58;;;;;;;138.82;51.88;;;;;;;;;;5033418;28;20043;-79
2024/01/11 08:43:25;;;;;;;155.88;58.03;;;;;;;;;;5029548;28;20032;-80
2024/01/11 08:45:51;;;;;;;153.52;57.45;;;;;;;;;;5029662;28;20034;-79
2024/01/11 08:48:17;;;;;;;146.93;54.15;;;;;;;;;;5031286;28;20030;-79
2024/01/11 08:50:43;;;;;;;142.80;53.17;;;;;;;;;;5031423;28;20039;-79
2024/01/11 08:53:10;;;;;;;149.50;55.28;;;;;;;;;;5030995;28;20056;-79
2024/01/11 08:55:36;;;;;;;142.93;54.10;;;;;;;;;;5031744;28;20160;-80
2024/01/11 08:58:03;;;;;;;149.02;53.63;;;;;;;;;;5041121;28;20045;-80
2024/01/11 09:00:29;;;;;;;145.43;55.42;;;;;;;;;;5049509;28;20045;-80
2024/01/11 09:02:56;;;;;;;143.18;55.08;;;;;;;;;;5031933;28;20030;-81
2024/01/11 09:05:24;;;;;;;147.90;55.03;;;;;;;;;;5031954;28;20117;-80
2024/01/11 09:07:51;;;;;;;136.32;54.30;;;;;;;;;;5029868;28;20017;-80
2024/01/11 09:10:17;;;;;;;131.45;52.08;;;;;;;;;;5032528;28;20108;-83
2024/01/11 09:12:43;;;;;;;129.73;53.55;;;;;;;;;;5034254;28;20060;-81
2024/01/11 09:15:10;;;;;;;125.70;52.08;;;;;;;;;;5031668;28;20418;-82
2024/01/11 09:17:37;;;;;;;116.07;49.10;;;;;;;;;;5030066;28;20050;-82
2024/01/11 09:20:03;;;;;;;115.10;50.70;;;;;;;;;;5034007;28;20124;-81
2024/01/11 09:22:29;;;;;;;123.05;50.65;;;;;;;;;;5038954;28;20029;-81
2024/01/11 09:24:56;;;;;;;110.80;47.92;;;;;;;;;;5037967;28;20442;-82
2024/01/11 09:27:22;;;;;;;113.07;48.72;;;;;;;;;;5037152;28;20013;-80
2024/01/11 09:29:48;;;;;;;112.32;45.22;;;;;;;;;;5031741;28;20030;-81
2024/01/11 09:32:14;;;;;;;102.00;43.47;;;;;;;;;;5034875;28;20033;-80
2024/01/11 09:34:41;;;;;;;95.82;42.28;;;;;;;;;;5031078;28;20158;-80
2024/01/11 09:37:07;;;;;;;93.38;38.60;;;;;;;;;;5033284;28;20033;-82
2024/01/11 09:39:33;;;;;;;85.45;36.97;;;;;;;;;;5028556;28;20090;-81
2024/01/11 09:42:03;;;;;;;86.30;35.97;;;;;;;;;;5030868;28;20038;-81
2024/01/11 09:44:30;;;;;;;92.18;38.25;;;;;;;;;;5030135;28;20110;-81
2024/01/11 09:46:58;;;;;;;93.45;40.28;;;;;;;;;;5029944;28;20033;-80
2024/01/11 09:49:24;;;;;;;85.53;37.33;;;;;;;;;;5029929;28;20055;-80
2024/01/11 09:51:52;;;;;;;87.00;35.17;;;;;;;;;;5031090;28;20045;-79
2024/01/11 09:54:21;;;;;;;85.10;35.83;;;;;;;;;;5032756;28;20033;-80
2024/01/11 09:56:48;;;;;;;92.70;37.88;;;;;;;;;;5030893;28;20380;-80
2024/01/11 09:59:16;;;;;;;74.43;34.17;;;;;;;;;;5012252;28;20033;-79
2024/01/11 10:01:43;;;;;;;80.07;35.95;;;;;;;;;;5030559;28;20022;-78
2024/01/11 10:04:09;;;;;;;83.90;36.65;;;;;;;;;;5038532;28;20030;-78
2024/01/11 10:06:38;;;;;;;80.20;36.47;;;;;;;;;;5048584;28;20045;-77
2024/01/11 10:09:05;;;;;;;73.10;35.13;;;;;;;;;;5053733;28;20014;-77
2024/01/11 10:11:31;;;;;;;73.38;35.72;;;;;;;;;;5038463;28;20040;-78
2024/01/11 10:13:59;;;;;;;78.50;35.28;;;;;;;;;;5035899;28;20038;-78
2024/01/11 10:16:25;;;;;;;69.10;34.08;;;;;;;;;;5032038;28;20021;-79
2024/01/11 10:18:54;;;;;;;78.68;36.70;;;;;;;;;;5030903;28;20056;-78
2024/01/11 10:21:20;;;;;;;76.38;36.97;;;;;;;;;;5034813;28;20395;-77
2024/01/11 10:23:47;;;;;;;68.95;34.78;;;;;;;;;;5037208;28;20029;-79
2024/01/11 10:26:15;;;;;;;70.75;34.25;;;;;;;;;;5052115;28;20203;-79
2024/01/11 10:28:44;;;;;;;72.00;34.30;;;;;;;;;;5060367;28;20058;-79
2024/01/11 10:31:11;;;;;;;70.68;33.90;;;;;;;;;;5035612;28;20024;-78
2024/01/11 10:33:37;;;;;;;74.15;34.83;;;;;;;;;;5030870;28;20441;-78
2024/01/11 10:36:04;;;;;;;73.63;35.03;;;;;;;;;;5032339;28;20041;-79
2024/01/11 10:38:36;;;;;;;68.63;32.67;;;;;;;;;;5031192;28;20048;-79
2024/01/11 10:41:04;;;;;;;68.45;33.47;;;;;;;;;;5031390;28;20108;-80
2024/01/11 10:43:31;;;;;;;72.70;34.67;;;;;;;;;;5031299;28;20076;-80
2024/01/11 10:46:03;;;;;;;70.43;34.28;;;;;;;;;;5049887;28;20391;-79
2024/01/11 10:48:31;;;;;;;69.88;33.65;;;;;;;;;;5068783;28;20060;-78
2024/01/11 10:51:00;;;;;;;68.57;33.78;;;;;;;;;;5063347;28;20102;-78
2024/01/11 10:53:45;;;;;;;67.28;34.38;;;;;;;;;;5043318;28;20490;-78
2024/01/11 10:56:15;;;;;;;71.95;32.80;;;;;;;;;;5030509;28;20044;-78
2024/01/11 10:58:42;;;;;;;68.20;33.55;;;;;;;;;;5030477;28;20055;-78
2024/01/11 11:01:10;;;;;;;66.78;33.30;;;;;;;;;;5029931;28;20056;-78
2024/01/11 11:03:38;;;;;;;66.93;33.25;;;;;;;;;;5029816;28;20029;-78
2024/01/11 11:06:05;;;;;;;65.80;31.85;;;;;;;;;;5030154;28;20034;-79
2024/01/11 11:08:31;;;;;;;65.25;32.65;;;;;;;;;;5043063;28;20043;-78
2024/01/11 11:10:58;;;;;;;68.55;32.30;;;;;;;;;;5033996;28;20045;-77
2024/01/11 11:13:25;;;;;;;68.53;32.30;;;;;;;;;;5030610;28;20073;-79
2024/01/11 11:15:52;;;;;;;65.57;32.00;;;;;;;;;;5030565;28;20467;-79
2024/01/11 11:18:19;;;;;;;68.07;33.97;;;;;;;;;;5027943;28;20116;-77
2024/01/11 11:20:47;;;;;;;60.10;31.27;;;;;;;;;;5034863;28;20043;-77
2024/01/11 11:23:17;;;;;;;65.35;31.65;;;;;;;;;;5034314;28;20194;-77
2024/01/11 11:25:43;;;;;;;65.60;32.40;;;;;;;;;;5034903;28;20042;-77
2024/01/11 11:28:11;;;;;;;70.68;33.58;;;;;;;;;;5041870;28;20038;-77
2024/01/11 11:30:38;;;;;;;63.75;31.25;;;;;;;;;;5040728;28;20031;-75
2024/01/11 11:33:09;;;;;;;66.65;32.38;;;;;;;;;;5035554;28;20065;-76
2024/01/11 11:35:36;;;;;;;69.20;31.88;;;;;;;;;;5031594;28;20106;-76
2024/01/11 11:38:03;;;;;;;58.55;30.48;;;;;;;;;;5029674;28;20040;-76
2024/01/11 11:40:39;;;;;;;63.88;31.17;;;;;;;;;;5029658;28;20045;-78
2024/01/11 11:43:05;;;;;;;63.88;30.23;;;;;;;;;;5028543;28;20388;-77
2024/01/11 11:45:32;;;;;;;58.13;28.75;;;;;;;;;;5029048;28;20029;-76
2024/01/11 11:47:58;;;;;;;56.97;27.83;;;;;;;;;;5028366;28;20029;-76
2024/01/11 11:50:24;;;;;;;59.70;30.02;;;;;;;;;;5033738;28;20033;-76
2024/01/11 11:52:56;;;;;;;55.78;27.30;;;;;;;;;;5038423;28;20034;-77
2024/01/11 11:55:24;;;;;;;62.85;28.42;;;;;;;;;;5025768;28;20100;-77
2024/01/11 11:57:51;;;;;;;55.00;27.40;;;;;;;;;;5018233;28;20061;-76
2024/01/11 12:00:18;;;;;;;56.92;29.02;;;;;;;;;;5029547;28;20049;-76
2024/01/11 12:02:44;;;;;;;54.13;28.23;;;;;;;;;;5036066;28;20042;-77
2024/01/11 12:05:10;;;;;;;64.05;27.52;;;;;;;;;;5052199;28;20053;-77
2024/01/11 12:07:36;;;;;;;51.65;26.70;;;;;;;;;;5047895;28;20318;-75
2024/01/11 12:10:02;;;;;;;51.97;27.42;;;;;;;;;;5038801;28;20419;-76
2024/01/11 12:12:28;;;;;;;48.58;26.35;;;;;;;;;;5041305;28;20063;-75
2024/01/11 12:14:55;;;;;;;55.72;29.10;;;;;;;;;;5080181;28;20144;-76
2024/01/11 12:17:21;;;;;;;48.05;27.45;;;;;;;;;;5032020;28;20309;-76
2024/01/11 12:19:48;;;;;;;51.25;28.30;;;;;;;;;;5032583;28;20063;-77
2024/01/11 12:22:14;;;;;;;50.60;27.35;;;;;;;;;;5032804;28;20033;-77
2024/01/11 12:24:41;;;;;;;50.13;26.77;;;;;;;;;;5031695;28;20451;-77
2024/01/11 12:27:07;;;;;;;48.25;26.00;;;;;;;;;;5031877;28;20057;-76
2024/01/11 12:29:33;;;;;;;47.35;26.38;;;;;;;;;;5029910;28;20034;-77
2024/01/11 12:32:00;;;;;;;50.40;26.98;;;;;;;;;;5032149;28;20033;-78
2024/01/11 12:34:26;;;;;;;49.33;25.88;;;;;;;;;;5031696;28;20518;-77
2024/01/11 12:37:00;;;;;;;46.75;25.52;;;;;;;;;;5033047;28;20044;-77
2024/01/11 12:39:27;;;;;;;52.17;27.42;;;;;;;;;;5031355;28;20041;-77
2024/01/11 12:41:57;;;;;;;48.53;26.02;;;;;;;;;;5029970;28;20116;-76
2024/01/11 12:44:24;;;;;;;46.70;25.38;;;;;;;;;;5031379;28;20045;-76
2024/01/11 12:46:50;;;;;;;48.15;26.02;;;;;;;;;;5036014;28;20021;-76
2024/01/11 12:49:17;;;;;;;48.38;23.98;;;;;;;;;;5034875;28;20355;-76
2024/01/11 12:51:43;;;;;;;44.63;22.77;;;;;;;;;;5036150;28;20569;-76
2024/01/11 12:54:13;;;;;;;47.70;25.10;;;;;;;;;;5031342;28;20071;-77
2024/01/11 12:56:42;;;;;;;43.05;23.10;;;;;;;;;;5032513;28;20033;-77
2024/01/11 12:59:09;;;;;;;47.75;23.25;;;;;;;;;;5045488;28;20528;-77
2024/01/11 13:01:41;;;;;;;43.45;22.60;;;;;;;;;;5032842;28;20041;-77
2024/01/11 13:04:11;;;;;;;44.28;23.17;;;;;;;;;;5031374;28;20021;-78
2024/01/11 13:06:37;;;;;;;42.65;23.33;;;;;;;;;;5044202;28;20037;-78
2024/01/11 13:09:04;;;;;;;45.67;24.25;;;;;;;;;;5052315;28;20401;-78
2024/01/11 13:11:30;;;;;;;50.20;25.67;;;;;;;;;;5056077;28;20144;-77
2024/01/11 13:13:58;;;;;;;45.53;24.08;;;;;;;;;;5050504;28;20156;-77
2024/01/11 13:16:25;;;;;;;44.90;24.17;;;;;;;;;;5043004;28;20162;-80
2024/01/11 13:18:51;;;;;;;46.60;23.90;;;;;;;;;;5030546;28;20044;-75
2024/01/11 13:21:17;;;;;;;49.17;23.83;;;;;;;;;;5032028;28;20022;-77
2024/01/11 13:23:43;;;;;;;46.63;23.95;;;;;;;;;;5042963;28;20098;-76
2024/01/11 13:26:10;;;;;;;47.10;24.98;;;;;;;;;;5048300;28;20056;-74
2024/01/11 13:28:36;;;;;;;46.47;24.45;;;;;;;;;;5034639;28;20025;-76
2024/01/11 13:31:03;;;;;;;44.17;24.60;;;;;;;;;;5034829;28;20538;-77
2024/01/11 13:33:29;;;;;;;46.25;25.38;;;;;;;;;;5034080;28;20403;-78
2024/01/11 13:35:55;;;;;;;45.53;24.55;;;;;;;;;;5038442;28;20103;-77
2024/01/11 13:38:21;;;;;;;46.88;23.25;;;;;;;;;;5033805;28;20037;-78
2024/01/11 13:40:47;;;;;;;45.55;24.52;;;;;;;;;;5032013;28;20045;-77
2024/01/11 13:43:14;;;;;;;45.42;23.92;;;;;;;;;;5031798;28;20102;-79
2024/01/11 13:45:40;;;;;;;40.78;22.58;;;;;;;;;;5030866;28;20041;-77
2024/01/11 13:48:06;;;;;;;39.22;21.42;;;;;;;;;;5031294;28;20018;-77
2024/01/11 13:50:32;;;;;;;43.10;21.80;;;;;;;;;;5030998;28;20089;-77
2024/01/11 13:52:59;;;;;;;35.03;19.90;;;;;;;;;;5029990;28;20030;-77
2024/01/11 13:55:25;;;;;;;36.80;21.02;;;;;;;;;;5031430;28;20483;-77
2024/01/11 13:57:52;;;;;;;38.80;20.98;;;;;;;;;;5031478;28;20034;-77
2024/01/11 14:00:19;;;;;;;38.20;20.92;;;;;;;;;;5032251;28;20044;-77
2024/01/11 14:02:45;;;;;;;37.70;20.95;;;;;;;;;;5079945;28;20017;-76
2024/01/11 14:05:13;;;;;;;36.33;20.38;;;;;;;;;;5058131;28;20079;-77
2024/01/11 14:07:44;;;;;;;36.65;19.70;;;;;;;;;;5018305;28;20502;-76
2024/01/11 14:10:11;;;;;;;42.58;21.08;;;;;;;;;;5012022;28;20038;-76